createdAt,value
2022-10-12T00:01:48.119Z,7.75
2022-10-12T00:04:15.573Z,8.18
2022-10-12T00:06:42.903Z,8.13
2022-10-12T00:09:10.472Z,7.55
2022-10-12T00:11:40.668Z,8.10
2022-10-12T00:14:08.237Z,7.93
2022-10-12T00:16:36.241Z,7.13
2022-10-12T00:19:03.664Z,7.70
2022-10-12T00:21:31.984Z,7.35
2022-10-12T00:24:00.203Z,7.32
2022-10-12T00:26:29.078Z,7.97
2022-10-12T00:29:00.109Z,7.85
2022-10-12T00:31:28.238Z,7.85
2022-10-12T00:33:56.160Z,7.70
2022-10-12T00:36:25.340Z,7.97
2022-10-12T00:38:54.449Z,6.93
2022-10-12T00:41:24.121Z,6.82
2022-10-12T00:43:56.992Z,7.68
2022-10-12T00:46:31.777Z,7.05
2022-10-12T00:49:06.504Z,7.32
2022-10-12T00:51:34.387Z,7.65
2022-10-12T00:54:05.373Z,7.65
2022-10-12T00:56:34.681Z,7.10
2022-10-12T00:59:04.260Z,7.38
2022-10-12T01:01:34.398Z,6.28
2022-10-12T01:04:01.857Z,7.30
2022-10-12T01:06:29.440Z,7.18
2022-10-12T01:09:03.732Z,6.90
2022-10-12T01:11:31.072Z,6.72
2022-10-12T01:13:58.771Z,7.13
2022-10-12T01:16:31.253Z,7.15
2022-10-12T01:19:05.124Z,6.90
2022-10-12T01:24:24.175Z,7.20
2022-10-12T01:27:04.298Z,6.90
2022-10-12T01:29:45.951Z,7.72
2022-10-12T01:32:19.198Z,7.10
2022-10-12T01:34:49.460Z,6.90
2022-10-12T01:37:21.734Z,6.63
2022-10-12T01:39:53.583Z,6.90
2022-10-12T01:42:24.534Z,7.35
2022-10-12T01:44:52.459Z,6.60
2022-10-12T01:47:21.578Z,6.60
2022-10-12T01:49:49.181Z,6.72
2022-10-12T01:52:28.408Z,6.43
2022-10-12T01:55:04.975Z,6.50
2022-10-12T01:57:36.784Z,6.32
2022-10-12T02:00:07.467Z,5.97
2022-10-12T02:02:42.709Z,7.38
2022-10-12T02:05:13.883Z,6.55
2022-10-12T02:07:43.560Z,7.25
2022-10-12T02:10:15.856Z,7.28
2022-10-12T02:12:44.001Z,6.85
2022-10-12T02:15:12.621Z,7.40
2022-10-12T02:17:44.572Z,6.32
2022-10-12T02:20:14.328Z,6.53
2022-10-12T02:22:42.818Z,7.15
2022-10-12T02:25:12.661Z,6.55
2022-10-12T02:27:43.762Z,6.88
2022-10-12T02:30:12.424Z,7.05
2022-10-12T02:32:45.709Z,7.60
2022-10-12T02:35:15.287Z,7.38
2022-10-12T02:37:45.570Z,7.25
2022-10-12T02:40:17.032Z,7.43
2022-10-12T02:43:09.450Z,7.25
2022-10-12T02:45:35.976Z,6.65
2022-10-12T02:48:05.832Z,6.65
2022-10-12T02:50:33.950Z,6.82
2022-10-12T02:53:01.355Z,6.78
2022-10-12T02:55:30.708Z,7.32
2022-10-12T02:57:58.127Z,6.03
2022-10-12T03:00:25.461Z,6.60
2022-10-12T03:02:52.782Z,6.97
2022-10-12T03:05:21.415Z,7.05
2022-10-12T03:07:48.726Z,6.75
2022-10-12T03:10:16.046Z,6.75
2022-10-12T03:12:47.753Z,6.15
2022-10-12T03:17:44.555Z,6.72
2022-10-12T03:20:12.416Z,6.78
2022-10-12T03:22:41.050Z,7.32
2022-10-12T03:25:08.713Z,6.95
2022-10-12T03:27:36.275Z,6.78
2022-10-12T03:30:03.964Z,6.38
2022-10-12T03:32:31.326Z,7.40
2022-10-12T03:34:58.665Z,7.65
2022-10-12T03:37:26.013Z,7.03
2022-10-12T03:39:54.654Z,7.53
2022-10-12T03:42:22.011Z,7.13
2022-10-12T03:44:49.332Z,6.90
2022-10-12T03:47:16.676Z,7.55
2022-10-12T03:49:44.005Z,10.25
2022-10-12T03:52:11.373Z,13.02
2022-10-12T03:54:38.690Z,16.38
2022-10-12T03:57:07.347Z,12.73
2022-10-12T03:59:34.662Z,8.90
2022-10-12T04:02:01.991Z,8.57
2022-10-12T04:04:29.318Z,7.20
2022-10-12T04:06:56.628Z,9.32
2022-10-12T04:09:24.024Z,8.02
2022-10-12T04:11:51.371Z,7.95
2022-10-12T04:14:20.012Z,7.93
2022-10-12T04:16:47.354Z,8.25
2022-10-12T04:19:15.001Z,7.95
2022-10-12T04:21:42.507Z,8.52
2022-10-12T04:24:09.830Z,7.72
2022-10-12T04:26:37.194Z,8.77
2022-10-12T04:29:04.836Z,9.00
2022-10-12T04:31:33.493Z,8.40
2022-10-12T04:34:00.821Z,10.40
2022-10-12T04:36:28.390Z,8.88
2022-10-12T04:39:00.645Z,8.88
2022-10-12T04:41:28.668Z,9.20
2022-10-12T04:43:56.235Z,8.70
2022-10-12T04:46:23.568Z,8.88
2022-10-12T04:48:52.239Z,9.23
2022-10-12T04:51:19.642Z,8.55
2022-10-12T04:53:47.004Z,9.10
2022-10-12T04:56:14.383Z,8.88
2022-10-12T04:58:41.721Z,8.73
2022-10-12T05:01:09.202Z,8.23
2022-10-12T05:03:41.656Z,8.90
2022-10-12T05:06:10.949Z,8.73
2022-10-12T05:08:38.281Z,8.05
2022-10-12T05:11:05.857Z,9.02
2022-10-12T05:13:33.224Z,9.13
2022-10-12T05:16:00.603Z,9.45
2022-10-12T05:18:27.938Z,9.27
2022-10-12T05:20:57.239Z,9.05
2022-10-12T05:23:25.998Z,9.55
2022-10-12T05:25:55.634Z,8.13
2022-10-12T05:28:23.065Z,8.27
2022-10-12T05:30:50.686Z,8.73
2022-10-12T05:33:18.565Z,9.07
2022-10-12T05:35:48.784Z,9.23
2022-10-12T05:38:17.576Z,8.75
2022-10-12T05:40:46.223Z,8.57
2022-10-12T05:43:13.628Z,8.20
2022-10-12T05:45:40.988Z,7.45
2022-10-12T05:48:08.335Z,8.60
2022-10-12T05:50:35.685Z,8.60
2022-10-12T05:53:03.066Z,8.40
2022-10-12T05:55:30.405Z,8.95
2022-10-12T05:57:59.078Z,8.85
2022-10-12T06:00:26.489Z,8.98
2022-10-12T06:02:53.823Z,8.45
2022-10-12T06:05:21.199Z,9.73
2022-10-12T06:07:48.535Z,12.40
2022-10-12T06:10:15.906Z,18.45
2022-10-12T06:12:43.296Z,16.95
2022-10-12T06:15:12.200Z,13.90
2022-10-12T06:17:39.562Z,14.60
2022-10-12T06:20:08.001Z,19.27
2022-10-12T06:22:35.619Z,17.92
2022-10-12T06:25:03.234Z,17.17
2022-10-12T06:27:31.174Z,16.42
2022-10-12T06:29:58.532Z,13.90
2022-10-12T06:32:27.162Z,13.25
2022-10-12T06:34:54.484Z,12.95
2022-10-12T06:37:47.831Z,12.30
2022-10-12T06:40:10.207Z,12.65
2022-10-12T06:42:37.919Z,13.50
2022-10-12T06:45:07.457Z,12.93
2022-10-12T06:47:36.107Z,11.30
2022-10-12T06:50:03.542Z,9.88
2022-10-12T06:52:31.593Z,9.63
2022-10-12T06:54:58.923Z,9.57
2022-10-12T06:57:26.312Z,9.20
2022-10-12T06:59:53.749Z,8.35
2022-10-12T07:02:21.190Z,8.20
2022-10-12T07:04:51.616Z,7.65
2022-10-12T07:07:19.126Z,7.45
2022-10-12T07:09:46.583Z,7.30
2022-10-12T07:12:13.934Z,7.75
2022-10-12T07:14:41.393Z,7.57
2022-10-12T07:17:08.815Z,6.72
2022-10-12T07:19:36.153Z,6.57
2022-10-12T07:22:04.811Z,7.32
2022-10-12T07:24:36.211Z,6.60
2022-10-12T07:27:04.148Z,6.13
2022-10-12T07:29:32.517Z,6.20
2022-10-12T07:31:59.923Z,6.45
2022-10-12T07:34:27.534Z,5.40
2022-10-12T07:36:59.645Z,5.65
2022-10-12T07:39:28.872Z,5.28
2022-10-12T07:41:56.745Z,4.90
2022-10-12T07:44:24.462Z,5.93
2022-10-12T07:46:52.115Z,5.28
2022-10-12T07:49:19.476Z,4.90
2022-10-12T07:51:47.333Z,5.85
2022-10-12T07:54:19.855Z,5.55
2022-10-12T07:59:17.450Z,4.80
2022-10-12T08:01:44.933Z,5.65
2022-10-12T08:04:12.338Z,4.88
2022-10-12T08:06:42.555Z,5.03
2022-10-12T08:09:10.334Z,4.82
2022-10-12T08:11:39.148Z,5.00
2022-10-12T08:14:10.396Z,4.60
2022-10-12T08:16:37.839Z,4.90
2022-10-12T08:19:05.168Z,4.60
2022-10-12T08:21:32.548Z,4.43
2022-10-12T08:23:59.909Z,4.53
2022-10-12T08:26:27.458Z,4.00
2022-10-12T08:28:54.879Z,3.83
2022-10-12T08:31:23.574Z,3.50
2022-10-12T08:33:51.021Z,4.18
2022-10-12T08:36:18.421Z,4.05
2022-10-12T08:38:48.572Z,3.90
2022-10-12T08:41:32.548Z,4.38
2022-10-12T08:46:35.120Z,4.05
2022-10-12T08:49:05.095Z,4.40
2022-10-12T08:51:34.659Z,4.07
2022-10-12T08:54:04.649Z,4.38
2022-10-12T08:56:32.188Z,3.92
2022-10-12T08:58:59.519Z,4.25
2022-10-12T09:01:30.933Z,4.13
2022-10-12T09:04:09.811Z,3.80
2022-10-12T09:06:40.987Z,4.25
2022-10-12T09:09:19.677Z,3.85
2022-10-12T09:11:57.451Z,3.85
2022-10-12T09:14:28.383Z,4.53
2022-10-12T09:16:56.770Z,3.90
2022-10-12T09:19:29.235Z,3.97
2022-10-12T09:21:57.343Z,3.30
2022-10-12T09:24:28.644Z,3.60
2022-10-12T09:27:00.447Z,3.83
2022-10-12T09:29:29.735Z,3.45
2022-10-12T09:32:11.633Z,2.92
2022-10-12T09:34:40.931Z,3.03
2022-10-12T09:37:13.570Z,3.08
2022-10-12T09:39:41.073Z,2.73
2022-10-12T09:42:10.141Z,2.78
2022-10-12T09:44:40.325Z,3.33
2022-10-12T09:47:24.201Z,3.20
2022-10-12T09:49:53.875Z,2.70
2022-10-12T09:52:23.010Z,3.00
2022-10-12T09:54:52.922Z,2.80
2022-10-12T09:57:21.779Z,2.60
2022-10-12T09:59:50.000Z,2.78
2022-10-12T10:02:18.778Z,2.30
2022-10-12T10:04:47.482Z,2.50
2022-10-12T10:07:24.566Z,2.72
2022-10-12T10:10:15.225Z,3.17
2022-10-12T10:12:49.439Z,2.42
2022-10-12T10:15:23.671Z,3.05
2022-10-12T10:17:53.976Z,2.65
2022-10-12T10:20:26.196Z,3.03
2022-10-12T10:22:55.134Z,2.97
2022-10-12T10:25:24.110Z,3.25
2022-10-12T10:27:52.718Z,3.28
2022-10-12T10:30:30.775Z,3.05
2022-10-12T10:33:09.957Z,3.13
2022-10-12T10:35:37.754Z,2.72
2022-10-12T10:38:07.398Z,3.03
2022-10-12T10:40:34.941Z,2.50
2022-10-12T10:43:04.994Z,2.47
2022-10-12T10:45:35.141Z,3.03
2022-10-12T10:48:08.003Z,2.55
2022-10-12T10:50:38.143Z,2.15
2022-10-12T10:53:08.914Z,2.33
2022-10-12T10:55:44.102Z,2.72
2022-10-12T10:58:20.202Z,2.72
2022-10-12T11:00:49.242Z,2.65
2022-10-12T11:05:57.158Z,2.25
2022-10-12T11:08:28.088Z,2.10
2022-10-12T11:10:58.268Z,2.80
2022-10-12T11:13:29.486Z,2.80
2022-10-12T11:15:58.801Z,2.70
2022-10-12T11:18:28.857Z,2.60
2022-10-12T11:20:59.218Z,2.13
2022-10-12T11:23:38.416Z,2.63
2022-10-12T11:26:24.192Z,3.00
2022-10-12T11:28:52.383Z,2.70
2022-10-12T11:31:24.083Z,2.60
2022-10-12T11:33:53.580Z,2.30
2022-10-12T11:36:22.716Z,2.67
2022-10-12T11:38:53.968Z,2.65
2022-10-12T11:41:38.705Z,2.47
2022-10-12T11:44:10.679Z,2.85
2022-10-12T11:46:40.968Z,2.85
2022-10-12T11:49:14.135Z,2.80
2022-10-12T11:54:18.563Z,3.22
2022-10-12T11:56:48.592Z,2.72
2022-10-12T11:59:18.118Z,2.78
2022-10-12T12:01:56.777Z,2.55
2022-10-12T12:04:47.776Z,2.30
2022-10-12T12:07:41.653Z,2.40
2022-10-12T12:10:46.429Z,2.70
2022-10-12T12:13:27.098Z,2.22
2022-10-12T12:16:27.155Z,2.75
2022-10-12T12:19:14.937Z,2.67
2022-10-12T12:22:26.233Z,2.70
2022-10-12T12:24:56.898Z,2.40
2022-10-12T12:27:30.419Z,2.70
2022-10-12T12:32:27.793Z,2.30
2022-10-12T12:35:00.540Z,1.88
2022-10-12T12:37:33.093Z,2.40
2022-10-12T12:40:00.944Z,2.28
2022-10-12T12:42:32.038Z,2.13
2022-10-12T12:45:40.859Z,2.65
2022-10-12T12:48:10.294Z,2.58
2022-10-12T12:50:38.731Z,2.15
2022-10-12T12:53:08.104Z,2.65
2022-10-12T12:55:50.383Z,2.13
2022-10-12T12:58:29.589Z,1.90
2022-10-12T13:01:21.288Z,2.25
2022-10-12T13:04:01.215Z,2.17
2022-10-12T13:06:53.398Z,2.33
2022-10-12T13:09:35.159Z,2.17
2022-10-12T13:12:18.035Z,2.10
2022-10-12T13:15:14.437Z,2.88
2022-10-12T13:17:53.801Z,2.55
2022-10-12T13:20:24.126Z,2.30
2022-10-12T13:22:54.445Z,2.53
2022-10-12T13:25:28.809Z,2.42
2022-10-12T13:27:56.578Z,2.33
2022-10-12T13:30:31.450Z,2.50
2022-10-12T13:33:04.234Z,2.88
2022-10-12T13:35:34.826Z,2.17
2022-10-12T13:38:04.240Z,2.20
2022-10-12T13:40:33.457Z,2.67
2022-10-12T13:43:19.476Z,1.90
2022-10-12T13:45:47.259Z,2.97
2022-10-12T13:48:29.510Z,2.97
2022-10-12T13:51:22.537Z,2.03
2022-10-12T13:53:49.963Z,1.83
2022-10-12T13:56:19.497Z,2.13
2022-10-12T13:58:47.137Z,1.90
2022-10-12T14:01:15.059Z,2.10
2022-10-12T14:03:45.021Z,2.10
2022-10-12T14:06:25.903Z,2.50
2022-10-12T14:08:53.431Z,2.47
2022-10-12T14:11:21.039Z,2.50
2022-10-12T14:13:48.626Z,2.53
2022-10-12T14:16:16.011Z,2.00
2022-10-12T14:18:45.532Z,3.50
2022-10-12T14:21:22.280Z,2.22
2022-10-12T14:23:52.153Z,2.80
2022-10-12T14:26:25.659Z,2.47
2022-10-12T14:28:53.543Z,2.78
2022-10-12T14:31:49.720Z,2.60
2022-10-12T14:34:34.829Z,2.50
2022-10-12T14:39:29.791Z,1.80
2022-10-12T14:41:57.633Z,1.95
2022-10-12T14:44:26.694Z,2.10
2022-10-12T14:46:55.708Z,2.25
2022-10-12T14:49:26.793Z,2.78
2022-10-12T14:51:55.226Z,2.75
2022-10-12T14:54:23.718Z,2.30
2022-10-12T14:56:51.075Z,2.63
2022-10-12T14:59:18.398Z,2.40
2022-10-12T15:01:49.011Z,3.17
2022-10-12T15:04:18.603Z,2.38
2022-10-12T15:06:50.949Z,2.83
2022-10-12T15:09:18.671Z,2.63
2022-10-12T15:11:46.006Z,2.22
2022-10-12T15:14:14.353Z,2.30
2022-10-12T15:16:41.751Z,2.70
2022-10-12T15:19:09.073Z,2.67
2022-10-12T15:21:36.445Z,3.20
2022-10-12T15:24:12.948Z,2.65
2022-10-12T15:26:42.428Z,2.83
2022-10-12T15:29:09.968Z,2.78
2022-10-12T15:31:37.308Z,3.03
2022-10-12T15:34:04.644Z,2.95
2022-10-12T15:36:31.999Z,2.72
2022-10-12T15:38:59.413Z,2.67
2022-10-12T15:41:28.079Z,2.35
2022-10-12T15:43:55.429Z,3.10
2022-10-12T15:46:22.819Z,2.70
2022-10-12T15:48:50.286Z,2.40
2022-10-12T15:51:22.708Z,2.67
2022-10-12T15:53:50.218Z,2.65
2022-10-12T15:56:18.457Z,3.42
2022-10-12T15:58:47.275Z,2.55
2022-10-12T16:01:15.556Z,2.85
2022-10-12T16:03:43.442Z,2.83
2022-10-12T16:06:10.933Z,2.80
2022-10-12T16:08:38.758Z,3.28
2022-10-12T16:11:07.530Z,2.65
2022-10-12T16:13:38.299Z,2.90
2022-10-12T16:16:10.008Z,3.10
2022-10-12T16:18:37.440Z,4.43
2022-10-12T16:21:05.122Z,4.85
2022-10-12T16:23:35.317Z,7.13
2022-10-12T16:26:03.864Z,7.35
2022-10-12T16:28:31.546Z,7.70
2022-10-12T16:30:58.977Z,6.38
2022-10-12T16:33:28.577Z,5.28
2022-10-12T16:35:55.926Z,5.25
2022-10-12T16:38:23.281Z,7.10
2022-10-12T16:40:50.686Z,12.32
2022-10-12T16:43:19.292Z,7.20
2022-10-12T16:45:46.800Z,12.50
2022-10-12T16:48:14.220Z,10.77
2022-10-12T16:50:43.556Z,12.82
2022-10-12T16:53:10.892Z,9.52
2022-10-12T16:55:39.616Z,9.43
2022-10-12T16:58:07.001Z,8.80
2022-10-12T17:00:34.645Z,9.63
2022-10-12T17:03:02.302Z,8.98
2022-10-12T17:05:29.793Z,9.70
2022-10-12T17:07:59.556Z,7.82
2022-10-12T17:10:26.968Z,6.05
2022-10-12T17:12:54.311Z,5.60
2022-10-12T17:15:21.657Z,7.65
2022-10-12T17:17:49.006Z,6.35
2022-10-12T17:20:16.382Z,7.10
2022-10-12T17:22:44.261Z,5.35
2022-10-12T17:25:12.921Z,9.05
2022-10-12T17:27:40.243Z,7.75
2022-10-12T17:30:08.867Z,9.48
2022-10-12T17:32:37.812Z,7.70
2022-10-12T17:35:05.833Z,9.27
2022-10-12T17:37:34.101Z,14.63
2022-10-12T17:40:02.774Z,10.48
2022-10-12T17:42:31.414Z,8.80
2022-10-12T17:44:58.824Z,11.32
2022-10-12T17:47:26.237Z,10.65
2022-10-12T17:49:53.648Z,10.30
2022-10-12T17:52:20.988Z,9.00
2022-10-12T17:54:48.298Z,7.88
2022-10-12T17:57:15.955Z,5.82
2022-10-12T17:59:44.931Z,7.65
2022-10-12T18:02:12.298Z,7.05
2022-10-12T18:04:39.645Z,5.90
2022-10-12T18:07:06.975Z,6.38
2022-10-12T18:09:34.301Z,6.47
2022-10-12T18:12:01.698Z,6.93
2022-10-12T18:14:29.094Z,7.68
2022-10-12T18:16:58.705Z,7.03
2022-10-12T18:19:26.047Z,7.40
2022-10-12T18:21:53.508Z,5.93
2022-10-12T18:24:23.114Z,6.13
2022-10-12T18:26:50.560Z,4.88
2022-10-12T18:29:20.436Z,4.90
2022-10-12T18:31:47.899Z,4.40
2022-10-12T18:34:16.752Z,4.45
2022-10-12T18:36:44.125Z,4.85
2022-10-12T18:39:11.556Z,4.70
2022-10-12T18:41:39.007Z,4.25
2022-10-12T18:44:06.354Z,4.40
2022-10-12T18:46:37.012Z,4.95
2022-10-12T18:49:06.826Z,4.88
2022-10-12T18:51:37.429Z,5.25
2022-10-12T18:54:05.452Z,7.40
2022-10-12T18:56:34.087Z,7.07
2022-10-12T18:59:02.109Z,7.28
2022-10-12T19:01:30.444Z,6.72
2022-10-12T19:03:59.157Z,7.10
2022-10-12T19:06:28.082Z,6.70
2022-10-12T19:08:57.397Z,6.82
2022-10-12T19:11:26.258Z,7.97
2022-10-12T19:13:53.995Z,8.32
2022-10-12T19:16:21.393Z,8.07
2022-10-12T19:18:50.023Z,7.80
2022-10-12T19:21:19.536Z,8.23
2022-10-12T19:23:47.186Z,8.32
2022-10-12T19:26:18.068Z,7.85
2022-10-12T19:28:46.212Z,8.00
2022-10-12T19:31:15.247Z,7.25
2022-10-12T19:33:43.175Z,7.20
2022-10-12T19:36:11.850Z,7.65
2022-10-12T19:38:39.531Z,7.03
2022-10-12T19:41:09.377Z,7.20
2022-10-12T19:43:38.240Z,7.57
2022-10-12T19:46:06.995Z,6.38
2022-10-12T19:48:34.569Z,7.18
2022-10-12T19:51:04.000Z,6.47
2022-10-12T19:53:31.415Z,8.15
2022-10-12T19:56:02.771Z,6.78
2022-10-12T19:58:30.133Z,6.57
2022-10-12T20:01:02.862Z,6.85
2022-10-12T20:03:30.405Z,6.43
2022-10-12T20:05:57.860Z,6.45
2022-10-12T20:08:25.693Z,6.97
2022-10-12T20:10:53.451Z,6.75
2022-10-12T20:13:21.250Z,6.55
2022-10-12T20:15:52.582Z,6.93
2022-10-12T20:18:21.461Z,7.35
2022-10-12T20:20:49.082Z,6.88
2022-10-12T20:23:17.199Z,6.68
2022-10-12T20:25:48.621Z,6.82
2022-10-12T20:28:16.468Z,6.68
2022-10-12T20:30:44.255Z,7.38
2022-10-12T20:33:11.771Z,6.88
2022-10-12T20:35:46.396Z,6.72
2022-10-12T20:38:13.864Z,7.00
2022-10-12T20:40:41.346Z,7.50
2022-10-12T20:43:08.720Z,6.70
2022-10-12T20:45:36.531Z,7.45
2022-10-12T20:48:04.365Z,6.60
2022-10-12T20:50:32.434Z,7.25
2022-10-12T20:53:01.223Z,6.97
2022-10-12T20:55:28.582Z,6.22
2022-10-12T20:57:56.074Z,6.70
2022-10-12T21:00:23.600Z,7.38
2022-10-12T21:02:51.005Z,7.13
2022-10-12T21:05:19.367Z,6.75
2022-10-12T21:07:46.929Z,6.72
2022-10-12T21:10:15.766Z,6.55
2022-10-12T21:12:43.149Z,6.78
2022-10-12T21:15:11.630Z,7.35
2022-10-12T21:17:38.984Z,6.57
2022-10-12T21:20:07.292Z,6.50
2022-10-12T21:22:34.650Z,6.07
2022-10-12T21:25:02.186Z,6.57
2022-10-12T21:27:30.871Z,6.57
2022-10-12T21:29:58.303Z,6.82
2022-10-12T21:32:32.380Z,6.78
2022-10-12T21:35:00.162Z,6.25
2022-10-12T21:37:28.972Z,7.03
2022-10-12T21:39:56.328Z,6.97
2022-10-12T21:42:23.859Z,6.47
2022-10-12T21:44:52.529Z,6.88
2022-10-12T21:47:19.923Z,6.00
2022-10-12T21:49:47.267Z,6.90
2022-10-12T21:52:14.611Z,6.97
2022-10-12T21:54:42.001Z,6.05
2022-10-12T21:57:09.458Z,6.47
2022-10-12T21:59:36.843Z,5.53
2022-10-12T22:02:05.498Z,6.50
2022-10-12T22:04:32.872Z,5.90
2022-10-12T22:07:00.838Z,6.32
2022-10-12T22:09:28.231Z,7.00
2022-10-12T22:11:55.563Z,6.07
2022-10-12T22:14:23.163Z,5.85
2022-10-12T22:16:50.498Z,6.32
2022-10-12T22:19:19.651Z,5.63
2022-10-12T22:21:47.563Z,5.57
2022-10-12T22:24:15.253Z,5.82
2022-10-12T22:26:42.639Z,6.13
2022-10-12T22:29:10.540Z,6.68
2022-10-12T22:31:38.689Z,5.70
2022-10-12T22:34:08.007Z,7.20
2022-10-12T22:36:37.969Z,6.68
2022-10-12T22:39:07.063Z,6.38
2022-10-12T22:41:34.406Z,6.03
2022-10-12T22:44:01.720Z,6.68
2022-10-12T22:46:29.073Z,6.68
2022-10-12T22:48:56.479Z,6.80
2022-10-12T22:51:28.892Z,7.00
2022-10-12T22:53:57.743Z,6.45
2022-10-12T22:56:25.251Z,6.85
2022-10-12T22:58:54.838Z,7.10
2022-10-12T23:01:22.481Z,6.93
2022-10-12T23:03:49.858Z,6.78
2022-10-12T23:06:18.231Z,6.57
2022-10-12T23:08:45.774Z,6.57
2022-10-12T23:11:16.019Z,6.90
2022-10-12T23:13:43.900Z,6.38
2022-10-12T23:16:12.624Z,6.97
2022-10-12T23:18:40.349Z,7.72
2022-10-12T23:21:08.991Z,6.90
2022-10-12T23:23:37.170Z,6.88
2022-10-12T23:26:06.496Z,6.55
2022-10-12T23:28:35.497Z,6.88
2022-10-12T23:31:03.963Z,7.30
2022-10-12T23:33:31.308Z,7.38
2022-10-12T23:35:59.208Z,7.47
2022-10-12T23:38:27.416Z,7.35
2022-10-12T23:40:54.735Z,7.43
2022-10-12T23:43:22.102Z,6.93
2022-10-12T23:45:50.981Z,6.68
2022-10-12T23:48:18.339Z,7.22
2022-10-12T23:50:47.235Z,7.00
2022-10-12T23:53:14.812Z,6.95
2022-10-12T23:55:42.354Z,6.72
2022-10-12T23:58:09.848Z,7.55
